This is the latest recevied weather packets stored in our database for station/object MEGLR. If no packets are shown the sender has not sent any weather packets the latest 10 day(s).
| Time | Temp. | Humidity | Pressure | Rain* | Wind** | Luminosity | Snow |
|---|---|---|---|---|---|---|---|
| 1787597402 | 21.67° C | 65% | 0 hPa | - | - | - | - |
| 1787596803 | 20.56° C | 66% | 0 hPa | - | - | - | - |
| 1787596203 | 20.56° C | 66% | 0 hPa | - | - | - | - |
| 1787595603 | 20° C | 67% | 0 hPa | - | - | - | - |
| 1787595003 | 19.44° C | 68% | 0 hPa | - | - | - | - |
| 1787594404 | 19.44° C | 68% | 0 hPa | - | - | - | - |
| 1787593803 | 18.89° C | 68% | 0 hPa | - | - | - | - |
| 1787593203 | 18.89° C | 70% | 0 hPa | - | - | - | - |
| 1787592603 | 17.78° C | 77% | 0 hPa | - | - | - | - |
| 1787592003 | 17.78° C | 76% | 0 hPa | - | - | - | - |
| 1787591403 | 16.67° C | 86% | 0 hPa | - | - | - | - |
| 1787590804 | 16.67° C | 96% | 0 hPa | - | - | - | - |
| 1787590203 | 16.11° C | 97% | 0 hPa | - | - | - | - |
| 1787589603 | 16.11° C | 97% | 0 hPa | - | - | - | - |
| 1787589003 | 16.11° C | 97% | 0 hPa | - | - | - | - |
| 1787588403 | 16.11° C | 96% | 0 hPa | - | - | - | - |
| 1787587803 | 16.11° C | 95% | 0 hPa | - | - | - | - |
| 1787587204 | 16.11° C | 94% | 0 hPa | - | - | - | - |
| 1787586603 | 15.56° C | 95% | 0 hPa | - | - | - | - |
| 1787586003 | 15° C | 99% | 0 hPa | - | - | - | - |
| 1787585403 | 15° C | 99% | 0 hPa | - | - | - | - |
| 1787584803 | 15° C | 99% | 0 hPa | - | - | - | - |
| 1787584202 | 15° C | 99% | 0 hPa | - | - | - | - |
| 1787583603 | 15° C | 99% | 0 hPa | - | - | - | - |
| 1787583003 | 15° C | 99% | 0 hPa | - | - | - | - |
* Rain since midnight (hover to see other rain measurements)
** Current wind speed in m/s (hover to see current wind gust speed)